Forside
METAR-TAF:

METAR-TAF

Lufthavne :

Columbus, Ohio, USA

Breddekreds: 39-59-42N, længdekreds: 082-52-35W, højde: 248 m

Aktuelle vejr

Denne rapport blev lavet for 1 time og 7 minutter siden, kl. 20:51 UTC
Vind 11 kt fra sydvest
Temperatur 1°C
Fugtighed 80%
Tryk 1013 hPa
Sigt: 14.5 km
Overskyet i en højde af 1200 ft

METAR: KCMH 262051Z 23011KT 9SM OVC012 01/M02 A2991 RMK AO2 SLP134 T00111017 55005

Tid: 16:58 (21:58 UTC)

Vejrudsigter

Denne rapport blev lavet for 4 timer og 25 minutter siden, kl. 17:33 UTC
Foreløbig gælder fra 26 på 18 UTC til 27 på 18 UTC
Vind 12 kt fra vestsydvest
Sigt: 10 km
Overskyet i en højde af 1200 ft
Fra 27 på 0500 UTC
Vind 6 kt fra vest
Sigt: 10 km
Overskyet i en højde af 1300 ft
Fra 27 på 1100 UTC
Vind 5 kt fra vest
Sigt: 8.0 km
Overskyet i en højde af 900 ft
dis
Fra 27 på 1600 UTC
Vind 6 kt fra vestnordvest
Sigt: 10 km
Overskyet i en højde af 1200 ft

TAF: KCMH 261733Z 2618/2718 25012KT P6SM OVC012 FM270500 27006KT P6SM OVC013 FM271100 28005KT 5SM BR OVC009 FM271600 29006KT P6SM OVC012

Vejrobservationer og prognoser fra mere end 4000 lufthavne (METAR og TAF).

De gule og røde prikker repræsenterer de meteorologiske stationer.

Flyt musen over at se navnet på stationen.

Så klik over at se vejr observationer og prognoser.

At skifte det kort: Klik på de grønne knapper med et sort kors for at zoome ind; på den grønne knap med en bindestreg for at zoome ud; eller på de grønne pile for tilstødende kort.


METAR-TAF: